Time;durP1;ratioP1;P1;durP2;ratioP2;P2;SDS_P1;SDS_P2;PMS_P1;PMS_P2;Temp;Humidity;BMP_temperature;BMP_pressure;BME280_temperature;BME280_humidity;BME280_pressure;Samples;Min_cycle;Max_cycle;Signal;HPM_P1;HPM_P2
2022/01/13 00:01:08;;;;;;;28.65;11.55;;;5.30;99.90;;;;;;5032027;28;20124;-62
2022/01/13 00:03:33;;;;;;;31.83;11.73;;;5.30;99.90;;;;;;5033239;28;20061;-62
2022/01/13 00:05:59;;;;;;;42.58;12.20;;;5.20;99.90;;;;;;5032978;28;20088;-62
2022/01/13 00:08:25;;;;;;;40.22;12.80;;;5.30;99.90;;;;;;5031711;28;20049;-62
2022/01/13 00:10:50;;;;;;;50.40;13.30;;;5.20;99.90;;;;;;5032946;28;20076;-62
2022/01/13 00:13:23;;;;;;;40.50;12.43;;;5.00;99.90;;;;;;5015913;28;20105;-62
2022/01/13 00:16:01;;;;;;;36.10;12.18;;;5.20;99.90;;;;;;5033062;28;20051;-62
2022/01/13 00:18:39;;;;;;;47.10;12.27;;;5.10;99.90;;;;;;5031469;28;20073;-62
2022/01/13 00:21:14;;;;;;;37.15;10.85;;;5.10;99.90;;;;;;5031738;28;20096;-62
2022/01/13 00:23:43;;;;;;;40.55;12.63;;;5.10;99.90;;;;;;5031691;28;20053;-62
2022/01/13 00:26:18;;;;;;;34.15;11.70;;;4.90;99.90;;;;;;5031639;28;20077;-62
2022/01/13 00:28:45;;;;;;;50.13;12.17;;;5.00;99.90;;;;;;5031517;28;20044;-62
2022/01/13 00:31:11;;;;;;;37.10;12.00;;;4.90;99.90;;;;;;5032710;28;20037;-62
2022/01/13 00:33:43;;;;;;;41.03;12.30;;;5.10;99.90;;;;;;5032633;28;20444;-62
2022/01/13 00:36:08;;;;;;;38.50;12.90;;;5.20;99.90;;;;;;5031521;28;20120;-62
2022/01/13 00:38:34;;;;;;;29.60;11.98;;;5.20;99.90;;;;;;5031227;28;20154;-62
2022/01/13 00:41:01;;;;;;;34.33;12.02;;;5.10;99.90;;;;;;5032563;28;20495;-62
2022/01/13 00:43:26;;;;;;;42.47;13.18;;;5.10;99.90;;;;;;5031337;28;20068;-62
2022/01/13 00:45:52;;;;;;;34.72;12.68;;;5.10;99.90;;;;;;5031418;28;20055;-62
2022/01/13 00:48:18;;;;;;;47.97;14.43;;;5.10;99.90;;;;;;5015287;28;20034;-62
2022/01/13 00:50:44;;;;;;;36.10;13.70;;;5.10;99.90;;;;;;5031261;28;20091;-62
2022/01/13 00:53:10;;;;;;;40.35;14.38;;;5.00;99.90;;;;;;5031280;28;20045;-63
2022/01/13 00:55:48;;;;;;;35.83;13.55;;;5.20;99.90;;;;;;5032815;28;20046;-62
2022/01/13 00:58:14;;;;;;;36.70;12.85;;;5.10;99.90;;;;;;5031228;28;20048;-62
2022/01/13 01:00:41;;;;;;;34.13;13.90;;;5.00;99.90;;;;;;5035998;28;20042;-62
2022/01/13 01:03:07;;;;;;;37.25;14.10;;;;;;;;;;5035149;28;20120;-62
2022/01/13 01:05:34;;;;;;;35.03;14.43;;;5.00;99.90;;;;;;5035753;28;20445;-62
2022/01/13 01:08:01;;;;;;;38.92;14.88;;;5.10;99.90;;;;;;5034971;28;20373;-62
2022/01/13 01:10:27;;;;;;;34.33;13.60;;;5.10;99.90;;;;;;5035989;28;20048;-62
2022/01/13 01:12:52;;;;;;;35.28;14.10;;;5.30;99.90;;;;;;5013431;28;20049;-62
2022/01/13 01:15:18;;;;;;;35.15;14.32;;;5.10;99.90;;;;;;5014868;28;20120;-62
2022/01/13 01:17:49;;;;;;;43.95;14.68;;;5.40;99.90;;;;;;5015775;28;20034;-62
2022/01/13 01:20:15;;;;;;;35.08;13.70;;;5.30;99.90;;;;;;5014743;28;20042;-62
2022/01/13 01:22:58;;;;;;;35.90;13.90;;;5.00;99.90;;;;;;5014994;28;20124;-62
2022/01/13 01:27:54;;;;;;;32.85;13.90;;;5.10;99.90;;;;;;5014851;28;20132;-62
2022/01/13 01:30:39;;;;;;;36.85;15.20;;;5.10;99.90;;;;;;5014806;28;20447;-62
2022/01/13 01:33:07;;;;;;;43.33;13.55;;;4.90;99.90;;;;;;5033309;28;20442;-62
2022/01/13 01:35:32;;;;;;;52.47;13.90;;;5.10;99.90;;;;;;5034529;28;20045;-61
2022/01/13 01:37:58;;;;;;;47.17;13.18;;;5.10;99.90;;;;;;5035114;28;20061;-62
2022/01/13 01:40:24;;;;;;;40.55;12.95;;;5.10;99.90;;;;;;5035317;28;20147;-61
2022/01/13 01:42:50;;;;;;;40.78;12.38;;;5.10;99.90;;;;;;5033958;28;20080;-61
2022/01/13 01:45:16;;;;;;;48.53;13.20;;;5.10;99.90;;;;;;5034114;28;20046;-62
2022/01/13 01:47:44;;;;;;;49.10;12.52;;;5.10;99.90;;;;;;5034213;28;20099;-62
2022/01/13 01:50:23;;;;;;;44.33;12.23;;;;;;;;;;5035206;28;20037;-62
2022/01/13 01:52:52;;;;;;;37.72;11.60;;;5.10;99.90;;;;;;5017680;28;20045;-62
2022/01/13 01:55:18;;;;;;;41.55;11.80;;;5.10;99.90;;;;;;5035135;28;20507;-62
2022/01/13 01:57:47;;;;;;;41.70;12.82;;;5.20;99.90;;;;;;5033614;28;20048;-62
2022/01/13 02:00:15;;;;;;;30.63;12.52;;;5.10;99.90;;;;;;5035123;28;20125;-62
2022/01/13 02:02:43;;;;;;;55.25;13.60;;;5.20;99.90;;;;;;5033620;28;20048;-62
2022/01/13 02:05:09;;;;;;;35.17;12.73;;;5.00;99.90;;;;;;5034918;28;20033;-62
2022/01/13 02:07:36;;;;;;;40.85;12.85;;;5.20;99.90;;;;;;5033502;28;20518;-62
2022/01/13 02:10:02;;;;;;;37.90;13.00;;;5.20;99.90;;;;;;5033685;28;20136;-62
2022/01/13 02:12:34;;;;;;;40.65;13.23;;;5.20;99.90;;;;;;5033543;28;20510;-62
2022/01/13 02:15:27;;;;;;;44.20;13.55;;;5.20;99.90;;;;;;5031982;28;20064;-62
2022/01/13 02:17:53;;;;;;;56.03;14.27;;;5.10;99.90;;;;;;5033647;28;20057;-62
2022/01/13 02:20:19;;;;;;;49.95;13.60;;;5.20;99.90;;;;;;5033478;28;20049;-62
2022/01/13 02:22:45;;;;;;;40.67;13.82;;;5.30;99.90;;;;;;5017270;28;20041;-62
2022/01/13 02:25:16;;;;;;;34.58;12.43;;;5.20;99.90;;;;;;5034804;28;20391;-63
2022/01/13 02:27:42;;;;;;;43.30;13.48;;;5.20;99.90;;;;;;5034337;28;20049;-62
2022/01/13 02:30:09;;;;;;;37.25;12.23;;;5.00;99.90;;;;;;5034559;28;20491;-62
2022/01/13 02:32:35;;;;;;;39.13;13.40;;;;;;;;;;5033498;28;20041;-62
2022/01/13 02:35:01;;;;;;;39.30;12.10;;;;;;;;;;5034589;28;20033;-62
2022/01/13 02:37:26;;;;;;;51.33;14.45;;;5.30;99.90;;;;;;5033209;28;20033;-62
2022/01/13 02:39:52;;;;;;;35.92;12.07;;;5.10;99.90;;;;;;5034357;28;20045;-61
2022/01/13 02:42:18;;;;;;;37.25;12.15;;;5.50;99.90;;;;;;5034431;28;20045;-61
2022/01/13 02:45:00;;;;;;;43.10;12.18;;;5.30;99.90;;;;;;5033085;28;20041;-62
2022/01/13 02:50:11;;;;;;;39.13;12.82;;;5.20;99.90;;;;;;5034302;28;20048;-62
2022/01/13 02:52:37;;;;;;;40.17;12.50;;;5.20;99.90;;;;;;5032967;28;20407;-61
2022/01/13 02:55:07;;;;;;;46.10;12.75;;;5.30;99.90;;;;;;5033909;28;20046;-61
2022/01/13 02:57:33;;;;;;;40.25;12.93;;;;;;;;;;5032704;28;20087;-62
2022/01/13 02:59:59;;;;;;;44.00;13.20;;;5.30;99.90;;;;;;5033881;28;20088;-62
2022/01/13 03:02:30;;;;;;;31.00;11.45;;;5.10;99.90;;;;;;5034118;28;20116;-62
2022/01/13 03:04:56;;;;;;;45.78;13.77;;;5.20;99.90;;;;;;5016188;28;20483;-61
2022/01/13 03:07:22;;;;;;;42.58;13.02;;;5.20;99.90;;;;;;5016333;28;20534;-62
2022/01/13 03:09:48;;;;;;;41.90;11.55;;;5.30;99.90;;;;;;5032591;28;20041;-62
2022/01/13 03:12:13;;;;;;;48.60;13.40;;;5.20;99.90;;;;;;5032545;28;20046;-62
2022/01/13 03:14:39;;;;;;;48.47;13.93;;;5.30;99.90;;;;;;5033556;28;20091;-62
2022/01/13 03:17:05;;;;;;;42.97;13.05;;;5.30;99.90;;;;;;5032529;28;20468;-62
2022/01/13 03:19:31;;;;;;;37.58;12.45;;;5.40;99.90;;;;;;5032323;28;20514;-61
2022/01/13 03:21:57;;;;;;;38.53;12.15;;;5.50;99.90;;;;;;5015512;28;20042;-62
2022/01/13 03:24:23;;;;;;;31.45;12.25;;;5.30;99.90;;;;;;5030341;28;20048;-62
2022/01/13 03:26:49;;;;;;;35.42;12.98;;;5.30;99.90;;;;;;5012819;28;20055;-62
2022/01/13 03:29:16;;;;;;;41.70;12.25;;;5.20;99.90;;;;;;5012243;28;20046;-62
2022/01/13 03:31:46;;;;;;;47.30;13.90;;;5.30;99.90;;;;;;5013760;28;20041;-62
2022/01/13 03:34:13;;;;;;;44.42;12.43;;;5.20;99.90;;;;;;5012455;28;20492;-62
2022/01/13 03:36:41;;;;;;;39.35;12.15;;;5.30;99.90;;;;;;5012399;28;20050;-62
2022/01/13 03:39:08;;;;;;;43.42;13.40;;;5.30;99.90;;;;;;5028288;28;20495;-61
2022/01/13 03:41:34;;;;;;;48.28;11.95;;;;;;;;;;5015799;28;20125;-61
2022/01/13 03:44:06;;;;;;;38.25;12.80;;;5.20;99.90;;;;;;5015566;28;20047;-62
2022/01/13 03:46:33;;;;;;;48.40;12.57;;;5.20;99.90;;;;;;5015633;28;20052;-62
2022/01/13 03:48:59;;;;;;;53.33;12.50;;;5.20;99.90;;;;;;5033464;28;20041;-62
2022/01/13 03:51:24;;;;;;;40.85;11.52;;;5.30;99.90;;;;;;5035676;28;20044;-62
2022/01/13 03:54:27;;;;;;;57.72;13.13;;;5.20;99.90;;;;;;5045494;28;20129;-62
2022/01/13 03:57:47;;;;;;;41.00;12.25;;;5.10;99.90;;;;;;5012199;28;20128;-62
2022/01/13 04:00:42;;;;;;;51.30;13.13;;;5.30;99.90;;;;;;5012114;28;20096;-62
2022/01/13 04:03:09;;;;;;;40.22;12.77;;;5.30;99.90;;;;;;5012056;28;20496;-62
2022/01/13 04:06:07;;;;;;;47.03;12.73;;;5.20;99.90;;;;;;5012265;28;20076;-62
2022/01/13 04:08:32;;;;;;;54.63;12.82;;;5.30;99.90;;;;;;5028311;28;20046;-62
2022/01/13 04:11:04;;;;;;;38.90;12.52;;;5.30;99.90;;;;;;5013259;28;20103;-62
2022/01/13 04:16:21;;;;;;;48.03;13.32;;;5.30;99.90;;;;;;5012076;28;20045;-62
2022/01/13 04:18:49;;;;;;;42.47;12.85;;;5.40;99.90;;;;;;5013364;28;20464;-62
2022/01/13 04:21:17;;;;;;;40.15;12.25;;;5.40;99.90;;;;;;5013113;28;20038;-62
2022/01/13 04:23:44;;;;;;;47.33;13.45;;;5.60;99.90;;;;;;5013048;28;20073;-62
2022/01/13 04:26:10;;;;;;;42.95;12.82;;;5.50;99.90;;;;;;5045116;28;20030;-62
2022/01/13 04:28:37;;;;;;;55.92;13.55;;;5.40;99.90;;;;;;5013243;28;20053;-62
2022/01/13 04:31:03;;;;;;;67.95;15.98;;;5.40;99.90;;;;;;5011909;28;20066;-62
2022/01/13 04:33:34;;;;;;;57.65;13.98;;;5.40;99.90;;;;;;5013385;28;20078;-62
2022/01/13 04:36:00;;;;;;;52.78;14.15;;;5.40;99.90;;;;;;5016828;28;20072;-62
2022/01/13 04:38:27;;;;;;;45.55;15.02;;;5.30;99.90;;;;;;5015559;28;20104;-62
2022/01/13 04:40:57;;;;;;;63.50;16.60;;;5.60;99.90;;;;;;5031837;28;20100;-62
2022/01/13 04:43:24;;;;;;;73.07;17.17;;;5.40;99.90;;;;;;5024559;28;20406;-61
2022/01/13 04:45:51;;;;;;;52.35;14.63;;;;;;;;;;5036633;28;20048;-62
2022/01/13 04:48:17;;;;;;;43.70;15.25;;;5.40;99.90;;;;;;5036704;28;20069;-62
2022/01/13 04:50:43;;;;;;;64.80;14.80;;;;;;;;;;5018562;28;20084;-61
2022/01/13 04:53:10;;;;;;;52.72;15.65;;;5.40;99.90;;;;;;5036153;28;20487;-62
2022/01/13 04:55:37;;;;;;;61.72;15.27;;;5.40;99.90;;;;;;5018502;28;20045;-62
2022/01/13 04:58:04;;;;;;;60.70;15.77;;;5.50;99.90;;;;;;5018401;28;20049;-61
2022/01/13 05:00:31;;;;;;;43.33;14.52;;;5.30;99.90;;;;;;5018354;28;20038;-62
2022/01/13 05:02:57;;;;;;;58.53;16.70;;;5.40;99.90;;;;;;5035552;28;20052;-62
2022/01/13 05:05:23;;;;;;;43.42;14.52;;;5.50;99.90;;;;;;5024426;28;20046;-61
2022/01/13 05:07:49;;;;;;;56.17;16.50;;;;;;;;;;4999024;28;20408;-61
2022/01/13 05:10:14;;;;;;;65.82;16.48;;;5.60;99.90;;;;;;5030075;28;20106;-61
2022/01/13 05:12:45;;;;;;;53.33;15.38;;;5.50;99.90;;;;;;5033221;28;20073;-62
2022/01/13 05:15:22;;;;;;;49.10;15.00;;;;;;;;;;5015919;28;20056;-62
2022/01/13 05:20:21;;;;;;;50.35;16.00;;;;;;;;;;5015689;28;20065;-62
2022/01/13 05:22:48;;;;;;;51.33;15.98;;;5.50;99.90;;;;;;5015554;28;20056;-62
2022/01/13 05:25:17;;;;;;;38.95;15.40;;;5.60;99.90;;;;;;5032918;28;20025;-61
2022/01/13 05:27:43;;;;;;;45.95;14.60;;;5.80;99.90;;;;;;5014839;28;20553;-61
2022/01/13 05:30:09;;;;;;;45.92;14.38;;;5.60;99.90;;;;;;5032741;28;20041;-62
2022/01/13 05:32:36;;;;;;;37.85;14.05;;;;;;;;;;5033410;28;20041;-62
2022/01/13 05:35:02;;;;;;;46.97;13.63;;;;;;;;;;5033587;28;20578;-61
2022/01/13 05:37:28;;;;;;;44.55;14.68;;;5.60;99.90;;;;;;5017237;28;20046;-62
2022/01/13 05:39:54;;;;;;;43.75;14.18;;;5.50;99.90;;;;;;5052591;28;20049;-62
2022/01/13 05:42:20;;;;;;;35.08;11.90;;;5.70;99.90;;;;;;5054169;28;20056;-62
2022/01/13 05:44:46;;;;;;;46.90;14.23;;;5.50;99.90;;;;;;5053698;28;20037;-62
2022/01/13 05:47:12;;;;;;;58.47;14.45;;;;;;;;;;5053734;28;20041;-62
2022/01/13 05:49:40;;;;;;;46.10;14.23;;;5.50;99.90;;;;;;5053729;28;20498;-60
2022/01/13 05:52:06;;;;;;;54.25;13.48;;;;;;;;;;5038503;28;20521;-61
2022/01/13 05:54:32;;;;;;;56.40;15.45;;;5.50;99.90;;;;;;5034086;28;20446;-62
2022/01/13 05:56:58;;;;;;;39.20;12.05;;;5.50;99.90;;;;;;5032639;28;20041;-62
2022/01/13 05:59:24;;;;;;;40.00;12.82;;;;;;;;;;5041387;28;20033;-62
2022/01/13 06:01:50;;;;;;;43.80;13.00;;;5.40;99.90;;;;;;5052807;28;20399;-61
2022/01/13 06:04:16;;;;;;;47.28;13.07;;;5.60;99.90;;;;;;5053896;28;20037;-61
2022/01/13 06:06:42;;;;;;;58.15;13.35;;;;;;;;;;5052807;28;20540;-61
2022/01/13 06:09:07;;;;;;;50.03;12.70;;;5.50;99.90;;;;;;5053584;28;20530;-62
2022/01/13 06:11:39;;;;;;;48.05;12.55;;;5.60;99.90;;;;;;5050836;28;20072;-62
2022/01/13 06:14:05;;;;;;;45.75;12.02;;;;;;;;;;5051643;28;20072;-62
2022/01/13 06:16:31;;;;;;;42.38;12.95;;;;;;;;;;5045152;28;20049;-61
2022/01/13 06:18:57;;;;;;;36.53;12.38;;;;;;;;;;5035115;28;20837;-62
2022/01/13 06:21:23;;;;;;;52.00;13.32;;;;;;;;;;5048363;28;20064;-61
2022/01/13 06:23:49;;;;;;;48.85;12.95;;;;;;;;;;5031888;28;20494;-61
2022/01/13 06:26:15;;;;;;;50.58;13.20;;;5.50;99.90;;;;;;5030994;28;20038;-62
2022/01/13 06:28:41;;;;;;;46.38;11.90;;;;;;;;;;5034821;28;20506;-62
2022/01/13 06:31:06;;;;;;;49.55;12.52;;;5.50;99.90;;;;;;5051530;28;20056;-62
2022/01/13 06:33:32;;;;;;;41.85;12.30;;;5.40;99.90;;;;;;5050674;28;20041;-62
2022/01/13 06:35:58;;;;;;;57.65;13.90;;;5.40;99.90;;;;;;5053283;28;20037;-62
2022/01/13 06:38:24;;;;;;;41.40;12.60;;;5.30;99.90;;;;;;5049425;28;20064;-62
2022/01/13 06:40:50;;;;;;;51.22;12.93;;;5.40;99.90;;;;;;5045556;28;20041;-63
2022/01/13 06:43:16;;;;;;;39.45;13.60;;;5.40;99.90;;;;;;5036837;28;20090;-63
2022/01/13 06:45:42;;;;;;;56.80;13.60;;;;;;;;;;5052210;28;20099;-62
2022/01/13 06:48:08;;;;;;;50.67;13.57;;;5.20;99.90;;;;;;5033743;28;20045;-62
2022/01/13 06:50:35;;;;;;;36.42;12.43;;;5.40;99.90;;;;;;5025418;28;20053;-62
2022/01/13 06:53:01;;;;;;;46.38;12.65;;;5.40;99.90;;;;;;5033153;28;20387;-62
2022/01/13 06:55:26;;;;;;;53.05;14.82;;;5.40;99.90;;;;;;5033774;28;20045;-62
2022/01/13 06:57:52;;;;;;;47.72;13.38;;;5.20;99.90;;;;;;5033279;28;20041;-62
2022/01/13 07:00:19;;;;;;;50.08;14.10;;;;;;;;;;5024882;28;20049;-61
2022/01/13 07:02:45;;;;;;;49.08;13.93;;;5.40;99.90;;;;;;5038904;28;20103;-62
2022/01/13 07:05:11;;;;;;;41.58;12.38;;;5.40;99.90;;;;;;5034768;28;20538;-62
2022/01/13 07:07:39;;;;;;;47.00;13.77;;;5.40;99.90;;;;;;5028278;28;20116;-62
2022/01/13 07:10:07;;;;;;;48.15;13.43;;;5.40;99.90;;;;;;5032632;28;20493;-62
2022/01/13 07:12:32;;;;;;;51.90;14.45;;;5.40;99.90;;;;;;5033937;28;20041;-62
2022/01/13 07:14:58;;;;;;;47.78;14.02;;;;;;;;;;5032366;28;20464;-62
2022/01/13 07:17:24;;;;;;;47.72;12.80;;;;;;;;;;5031084;28;20049;-62
2022/01/13 07:19:53;;;;;;;46.53;14.25;;;5.40;99.90;;;;;;5032612;28;20034;-62
2022/01/13 07:22:19;;;;;;;54.28;14.30;;;5.30;99.90;;;;;;5032577;28;20056;-62
2022/01/13 07:24:45;;;;;;;42.70;13.23;;;5.30;99.90;;;;;;5030959;28;20029;-62
2022/01/13 07:27:11;;;;;;;39.60;13.02;;;5.40;99.90;;;;;;5064808;28;20044;-62
2022/01/13 07:29:39;;;;;;;42.63;13.77;;;5.30;99.90;;;;;;5032328;28;20492;-61
2022/01/13 07:32:06;;;;;;;58.72;14.65;;;5.40;99.90;;;;;;5032492;28;20047;-62
2022/01/13 07:34:32;;;;;;;42.30;12.95;;;5.40;99.90;;;;;;5032123;28;20446;-62
2022/01/13 07:36:57;;;;;;;54.90;13.48;;;5.30;99.90;;;;;;5054315;28;20037;-62
2022/01/13 07:39:23;;;;;;;57.42;15.40;;;;;;;;;;5036676;28;20579;-61
2022/01/13 07:41:49;;;;;;;50.40;13.50;;;5.40;99.90;;;;;;5031379;28;20120;-62
2022/01/13 07:44:16;;;;;;;48.08;13.60;;;5.40;99.90;;;;;;5036167;28;20025;-62
2022/01/13 07:46:41;;;;;;;58.58;14.30;;;5.60;99.90;;;;;;5032184;28;20511;-62
2022/01/13 07:49:07;;;;;;;58.80;14.93;;;5.30;99.90;;;;;;5062613;28;20051;-63
2022/01/13 07:51:33;;;;;;;53.45;14.65;;;;;;;;;;5035357;28;20033;-63
2022/01/13 07:53:59;;;;;;;43.35;13.68;;;5.40;99.90;;;;;;5044025;28;20483;-63
2022/01/13 07:56:24;;;;;;;57.35;14.73;;;5.40;99.90;;;;;;5034625;28;20044;-63
2022/01/13 07:58:50;;;;;;;48.60;13.95;;;5.40;99.90;;;;;;5031806;28;20037;-63
2022/01/13 08:01:15;;;;;;;38.08;14.05;;;5.50;99.90;;;;;;5031790;28;20117;-63
2022/01/13 08:03:41;;;;;;;65.00;15.85;;;5.50;99.90;;;;;;5029942;28;20046;-63
2022/01/13 08:06:07;;;;;;;57.08;14.52;;;5.60;99.90;;;;;;5032236;28;20040;-63
2022/01/13 08:08:35;;;;;;;50.15;14.18;;;5.60;99.90;;;;;;5032432;28;20137;-63
2022/01/13 08:11:02;;;;;;;63.28;16.33;;;5.50;99.90;;;;;;5036377;28;20052;-63
2022/01/13 08:13:27;;;;;;;74.70;16.13;;;5.60;99.90;;;;;;5035306;28;20041;-62
2022/01/13 08:15:54;;;;;;;59.38;15.73;;;5.60;99.90;;;;;;5034612;28;20060;-62
2022/01/13 08:21:05;;;;;;;61.92;15.90;;;5.50;99.90;;;;;;5036488;28;20049;-63
2022/01/13 08:23:30;;;;;;;49.33;14.80;;;5.40;99.90;;;;;;5044901;28;20116;-63
2022/01/13 08:25:57;;;;;;;65.53;15.77;;;5.60;99.90;;;;;;5035867;28;20056;-63
2022/01/13 08:28:23;;;;;;;67.80;15.05;;;5.60;99.90;;;;;;5035281;28;20045;-62
2022/01/13 08:30:49;;;;;;;72.13;16.92;;;5.60;99.90;;;;;;5041957;28;20053;-63
2022/01/13 08:33:15;;;;;;;75.13;16.35;;;5.60;99.90;;;;;;5058936;28;20049;-63
2022/01/13 08:35:43;;;;;;;64.78;15.73;;;5.60;99.90;;;;;;5035292;28;20108;-63
2022/01/13 08:38:16;;;;;;;67.43;16.55;;;;;;;;;;5034177;28;20064;-63
2022/01/13 08:40:43;;;;;;;61.97;16.50;;;5.70;99.90;;;;;;5033791;28;20136;-63
2022/01/13 08:43:08;;;;;;;72.03;17.75;;;5.70;99.90;;;;;;5038947;28;20037;-62
2022/01/13 08:45:34;;;;;;;66.75;16.67;;;5.70;99.90;;;;;;5042199;28;20042;-62
2022/01/13 08:48:00;;;;;;;70.38;17.50;;;5.40;99.90;;;;;;5034106;28;20100;-63
2022/01/13 08:50:25;;;;;;;68.07;16.90;;;5.70;99.90;;;;;;5033674;28;20124;-63
2022/01/13 08:52:51;;;;;;;80.45;17.70;;;5.80;99.90;;;;;;5035423;28;20037;-62
2022/01/13 08:55:17;;;;;;;75.18;18.77;;;5.60;99.90;;;;;;5040401;28;20084;-63
2022/01/13 08:57:43;;;;;;;84.43;18.55;;;;;;;;;;5034435;28;20077;-63
2022/01/13 09:00:10;;;;;;;71.63;18.92;;;5.90;99.90;;;;;;5033478;28;20068;-63
2022/01/13 09:02:35;;;;;;;81.68;19.52;;;5.80;99.90;;;;;;5032067;28;20121;-63
2022/01/13 09:05:02;;;;;;;78.88;21.00;;;;;;;;;;5035713;28;20042;-63
2022/01/13 09:07:28;;;;;;;73.75;19.50;;;5.80;99.90;;;;;;5036785;28;20087;-63
2022/01/13 09:09:54;;;;;;;91.22;20.50;;;5.90;99.90;;;;;;5032870;28;20128;-63
2022/01/13 09:12:20;;;;;;;73.93;18.85;;;;;;;;;;5029476;28;20033;-63
2022/01/13 09:14:46;;;;;;;74.43;18.17;;;;;;;;;;5032338;28;20041;-62
2022/01/13 09:17:20;;;;;;;77.85;20.08;;;;;;;;;;5033094;28;20045;-62
2022/01/13 09:19:46;;;;;;;70.97;20.15;;;;;;;;;;5037222;28;20052;-63
2022/01/13 09:22:12;;;;;;;79.43;19.30;;;6.00;99.90;;;;;;5049334;28;20036;-64
2022/01/13 09:24:38;;;;;;;84.55;20.38;;;;;;;;;;5048928;28;20029;-63
2022/01/13 09:27:05;;;;;;;74.07;20.90;;;;;;;;;;5047003;28;20041;-64
2022/01/13 09:29:30;;;;;;;89.38;20.80;;;;;;;;;;5046819;28;20037;-63
2022/01/13 09:31:56;;;;;;;81.85;21.30;;;;;;;;;;5049399;28;20036;-64
2022/01/13 09:34:22;;;;;;;89.30;20.83;;;;;;;;;;5036831;28;20037;-63
2022/01/13 09:36:48;;;;;;;80.00;21.27;;;;;;;;;;5030579;28;20041;-64
2022/01/13 09:39:15;;;;;;;82.95;21.42;;;;;;;;;;5038153;28;20107;-63
2022/01/13 09:41:43;;;;;;;70.10;20.25;;;6.20;99.90;;;;;;5035972;28;20041;-62
2022/01/13 09:44:10;;;;;;;73.70;20.33;;;6.20;99.90;;;;;;5034213;28;20048;-62
2022/01/13 09:46:36;;;;;;;82.80;22.27;;;6.20;99.90;;;;;;5049782;28;20046;-63
2022/01/13 09:49:05;;;;;;;89.28;21.75;;;6.20;99.90;;;;;;5039018;28;20459;-63
2022/01/13 09:51:35;;;;;;;86.70;21.05;;;6.30;99.90;;;;;;5037763;28;20491;-63
2022/01/13 09:54:01;;;;;;;78.43;20.60;;;;;;;;;;5050117;28;20050;-63
2022/01/13 09:56:27;;;;;;;75.68;22.25;;;;;;;;;;5031379;28;20043;-63
2022/01/13 09:58:53;;;;;;;63.78;19.23;;;;;;;;;;5035826;28;20045;-62
2022/01/13 10:01:19;;;;;;;79.45;21.08;;;;;;;;;;5030503;28;20088;-64
2022/01/13 10:03:45;;;;;;;70.05;21.77;;;6.40;99.90;;;;;;5028520;28;20049;-64
2022/01/13 10:06:17;;;;;;;75.75;20.70;;;6.50;99.90;;;;;;5054696;28;20462;-63
2022/01/13 10:08:49;;;;;;;80.47;23.90;;;6.60;99.90;;;;;;5030719;28;20068;-63
2022/01/13 10:11:37;;;;;;;81.22;21.88;;;6.50;99.90;;;;;;5038831;28;20518;-63
2022/01/13 10:16:48;;;;;;;70.60;21.88;;;;;;;;;;5061993;28;20088;-64
2022/01/13 10:19:27;;;;;;;82.38;22.20;;;;;;;;;;5032819;28;20100;-63
2022/01/13 10:21:59;;;;;;;69.30;21.45;;;6.60;99.90;;;;;;5035927;28;20724;-63
2022/01/13 10:24:27;;;;;;;82.93;21.67;;;6.50;99.90;;;;;;5063376;28;20041;-62
2022/01/13 10:27:01;;;;;;;85.00;22.45;;;;;;;;;;5036008;28;20041;-63
2022/01/13 10:29:46;;;;;;;80.47;22.38;;;;;;;;;;5036975;28;20040;-64
2022/01/13 10:32:14;;;;;;;78.57;23.15;;;6.80;99.90;;;;;;5040389;28;20036;-63
2022/01/13 10:34:43;;;;;;;73.00;21.75;;;6.60;99.90;;;;;;5034244;28;20095;-64
2022/01/13 10:37:27;;;;;;;74.45;21.40;;;6.60;99.90;;;;;;5030941;28;20742;-64
2022/01/13 10:40:07;;;;;;;91.53;23.17;;;6.90;99.90;;;;;;5013550;28;20049;-64
2022/01/13 10:45:05;;;;;;;79.93;22.27;;;;;;;;;;5030309;28;20380;-63
2022/01/13 10:47:31;;;;;;;63.65;20.55;;;6.80;99.90;;;;;;5029617;28;20041;-63
2022/01/13 10:50:01;;;;;;;84.03;22.80;;;;;;;;;;5031176;28;20103;-64
2022/01/13 10:52:28;;;;;;;78.93;23.30;;;6.50;99.90;;;;;;5031102;28;20049;-62
2022/01/13 10:54:55;;;;;;;69.85;21.02;;;6.80;99.90;;;;;;5031319;28;20055;-63
2022/01/13 10:57:22;;;;;;;74.95;20.00;;;;;;;;;;5030634;28;20852;-63
2022/01/13 10:59:48;;;;;;;70.68;20.17;;;7.00;99.90;;;;;;5031015;28;20081;-64
2022/01/13 11:02:13;;;;;;;69.55;19.92;;;6.90;99.90;;;;;;5051363;28;20080;-63
2022/01/13 11:04:39;;;;;;;59.92;18.60;;;;;;;;;;5036260;28;20058;-63
2022/01/13 11:07:12;;;;;;;74.15;21.33;;;;;;;;;;5036646;28;20028;-63
2022/01/13 11:09:42;;;;;;;62.65;20.08;;;6.90;99.90;;;;;;5042391;28;20395;-63
2022/01/13 11:12:10;;;;;;;63.30;19.38;;;;;;;;;;5041886;28;20052;-63
2022/01/13 11:14:42;;;;;;;72.50;19.60;;;;;;;;;;5041973;28;20049;-62
2022/01/13 11:17:11;;;;;;;69.30;20.65;;;7.00;99.90;;;;;;5037779;28;20049;-62
2022/01/13 11:19:44;;;;;;;61.22;19.63;;;;;;;;;;5029047;28;20049;-61
2022/01/13 11:22:12;;;;;;;69.15;20.88;;;7.00;99.90;;;;;;5059232;28;20128;-62
2022/01/13 11:24:38;;;;;;;71.63;20.75;;;;;;;;;;5030297;28;20069;-62
2022/01/13 11:27:04;;;;;;;73.38;23.30;;;;;;;;;;5040361;28;20041;-64
2022/01/13 11:29:30;;;;;;;84.00;22.80;;;;;;;;;;5028891;28;20068;-64
2022/01/13 11:31:57;;;;;;;77.03;22.95;;;7.00;99.90;;;;;;5040035;28;20076;-64
2022/01/13 11:34:23;;;;;;;61.65;20.45;;;;;;;;;;5035428;28;20045;-63
2022/01/13 11:36:50;;;;;;;52.45;19.27;;;;;;;;;;5029056;28;20045;-63
2022/01/13 11:39:16;;;;;;;65.65;21.35;;;;;;;;;;5041098;28;20163;-62
2022/01/13 11:42:02;;;;;;;77.68;22.67;;;;;;;;;;5035514;28;20056;-63
2022/01/13 11:44:28;;;;;;;59.53;20.45;;;;;;;;;;5036284;28;20047;-64
2022/01/13 11:46:54;;;;;;;58.67;20.70;;;;;;;;;;5037481;28;20037;-64
2022/01/13 11:49:33;;;;;;;65.60;23.10;;;7.10;99.90;;;;;;5038209;28;20048;-63
2022/01/13 11:52:09;;;;;;;71.35;22.27;;;;;;;;;;5042124;28;20136;-62
2022/01/13 11:54:36;;;;;;;67.35;21.92;;;;;;;;;;5037525;28;20080;-63
2022/01/13 11:57:11;;;;;;;73.22;24.38;;;7.30;99.90;;;;;;5039420;28;20529;-66
2022/01/13 11:59:37;;;;;;;68.38;23.77;;;7.10;99.90;;;;;;5036428;28;20045;-64
2022/01/13 12:02:22;;;;;;;90.68;25.75;;;;;;;;;;5036493;28;20045;-64
2022/01/13 12:05:07;;;;;;;75.03;23.60;;;;;;;;;;5038914;28;20037;-65
2022/01/13 12:07:47;;;;;;;78.10;24.30;;;7.20;99.90;;;;;;5037219;28;20045;-64
2022/01/13 12:10:34;;;;;;;68.40;23.63;;;7.10;99.90;;;;;;5028456;28;20049;-64
2022/01/13 12:13:00;;;;;;;85.57;26.33;;;;;;;;;;5030281;28;20045;-65
2022/01/13 12:15:28;;;;;;;83.72;26.80;;;;;;;;;;5032236;28;20482;-65
2022/01/13 12:18:05;;;;;;;64.57;22.30;;;7.00;99.90;;;;;;5057571;28;20041;-65
2022/01/13 12:20:50;;;;;;;71.65;22.42;;;;;;;;;;5036721;28;20052;-65
2022/01/13 12:23:17;;;;;;;;;;;;;;;;;;5032859;28;20501;-65
2022/01/13 12:25:44;;;;;;;68.80;23.85;;;7.50;99.90;;;;;;5029357;28;19978;-65
2022/01/13 12:28:18;;;;;;;70.15;24.80;;;7.10;99.90;;;;;;5030332;28;20395;-65
2022/01/13 12:30:44;;;;;;;68.20;24.65;;;7.30;99.90;;;;;;5033066;28;20408;-65
2022/01/13 12:33:12;;;;;;;72.25;26.65;;;7.20;99.90;;;;;;5035400;28;20052;-65
2022/01/13 12:35:37;;;;;;;63.00;24.70;;;7.50;99.90;;;;;;5030992;28;20045;-65
2022/01/13 12:38:18;;;;;;;74.68;26.88;;;7.20;99.90;;;;;;5030743;28;20615;-65
2022/01/13 12:41:01;;;;;;;75.40;27.35;;;7.20;99.90;;;;;;5029334;28;20053;-65
2022/01/13 12:43:37;;;;;;;62.75;26.25;;;7.30;99.90;;;;;;5036424;28;20392;-65
2022/01/13 12:46:04;;;;;;;65.43;23.85;;;;;;;;;;5030979;28;20053;-65
2022/01/13 12:48:31;;;;;;;61.17;24.90;;;7.30;99.90;;;;;;5029540;28;20121;-64
2022/01/13 12:50:58;;;;;;;74.05;29.42;;;7.40;99.90;;;;;;5032095;28;20046;-65
2022/01/13 12:53:26;;;;;;;64.13;24.92;;;;;;;;;;5036764;28;20162;-64
2022/01/13 12:55:58;;;;;;;66.65;27.92;;;;;;;;;;5029520;28;20045;-64
2022/01/13 12:58:27;;;;;;;73.07;26.90;;;7.40;99.90;;;;;;5031635;28;20499;-64
2022/01/13 13:01:00;;;;;;;62.58;26.77;;;;;;;;;;5063371;28;20068;-64
2022/01/13 13:03:26;;;;;;;73.65;26.65;;;;;;;;;;5042571;28;20033;-64
2022/01/13 13:05:53;;;;;;;60.78;27.17;;;;;;;;;;5040169;28;20049;-65
2022/01/13 13:08:21;;;;;;;62.70;26.70;;;7.60;99.90;;;;;;5043884;28;20041;-64
2022/01/13 13:10:53;;;;;;;65.57;28.45;;;;;;;;;;5035931;28;20045;-64
2022/01/13 13:13:19;;;;;;;67.95;28.33;;;7.70;99.90;;;;;;5037700;28;20049;-64
2022/01/13 13:16:00;;;;;;;70.13;28.42;;;;;;;;;;5030116;28;20710;-64
2022/01/13 13:18:27;;;;;;;62.28;26.63;;;;;;;;;;5038649;28;20047;-64
2022/01/13 13:20:54;;;;;;;62.15;27.05;;;;;;;;;;5032580;28;20052;-64
2022/01/13 13:23:31;;;;;;;56.85;25.55;;;7.70;99.90;;;;;;5043746;28;20040;-64
2022/01/13 13:25:57;;;;;;;57.90;25.10;;;;;;;;;;5018808;28;20555;-65
2022/01/13 13:28:39;;;;;;;60.03;26.58;;;7.80;99.90;;;;;;5041619;28;20118;-62